Etusivu
METAR-TAF:

METAR-TAF

Lentoasemat :

Gran Canarian lentoasema

Gran Canaria, Espanja

Leveyspiiri: 27-56N, Pituuspiiri: 015-23W, korkeus merenpinnasta: 23 m

Tämänhetkinen sää

Tämä raportti tehtiin 21 minuuttia sitten, kello 08.30 UTC
Tuuli 19 kn pohjoisesta
Lämpötila 18°C
Kosteus 56%
Ilmanpaine 1022 hPa
Näkyvyys 10 km tai enemmän
Hajonneita pilviä 3500 ft:n korkeudessa

METAR: GCLP 200830Z 36019KT 9999 BKN035 18/09 Q1022 NOSIG

Aika: 08:51 (08:51 UTC)

Sääennuste

Tämä raportti tehtiin 51 minuuttia sitten, kello 08.00 UTC
Ennuste voimassa 20. päivästä klo 09 UTC - 21. päivään klo 09 UTC
Tuuli 22 kn pohjoisesta
Näkyvyys 10 km tai enemmän
Hajanaisia pilviä 2500 ft:n korkeudessa
Todennäköisyys 30% :
Ajoittain
20. päivästä klo 09 UTC - 20. päivään klo 21 UTC
Tuuli 20 kn pohjoisesta puuskistuen 30 kn:hen

TAF: GCLP 200800Z 2009/2109 01022KT 9999 SCT025 TX21/2014Z TN15/2106Z PROB30 TEMPO 2009/2021 01020G30KT

Säähavainnot ja -ennusteet yli 4000 lentoasemalta (METAR- ja TAF-raportit).

Käytössä olevat sääasemat on merkitty karttaan keltaisilla ja punaisilla pisteillä.

Aseta hiiri pisteen päälle nähdäksesi sääaseman nimen.

Klikkaa sitten nähdäksesi säähavainnot ja -ennusteet.

Kartan vaihtaminen: klikkaa mustalla rastilla varustettuja vihreitä pisteitä, niin voit zoomata sisään; viivalla varustettua vihreää pistettä, niin voit zoomata ulos tai vihreitä nuolia, niin pääset viereisille kartoille.


METAR-TAF: